createdAt,value
2018-02-21T00:01:51.813Z,66.93
2018-02-21T00:04:19.150Z,64.67
2018-02-21T00:06:46.525Z,62.97
2018-02-21T00:09:13.864Z,56.10
2018-02-21T00:11:41.259Z,64.73
2018-02-21T00:14:08.602Z,59.87
2018-02-21T00:16:36.007Z,64.70
2018-02-21T00:19:03.368Z,57.30
2018-02-21T00:21:30.751Z,58.97
2018-02-21T00:23:58.092Z,60.60
2018-02-21T00:26:25.458Z,60.50
2018-02-21T00:28:52.796Z,63.37
2018-02-21T00:31:20.180Z,65.17
2018-02-21T00:33:47.539Z,63.57
2018-02-21T00:36:14.887Z,57.17
2018-02-21T00:38:43.290Z,58.50
2018-02-21T00:41:10.632Z,65.80
2018-02-21T00:43:38.000Z,64.63
2018-02-21T00:46:05.348Z,59.37
2018-02-21T00:48:32.714Z,61.60
2018-02-21T00:51:00.166Z,62.13
2018-02-21T00:53:27.526Z,61.53
2018-02-21T00:55:54.875Z,58.70
2018-02-21T00:58:22.242Z,62.87
2018-02-21T01:00:49.582Z,68.47
2018-02-21T01:03:16.952Z,65.10
2018-02-21T01:05:44.591Z,68.63
2018-02-21T01:08:11.993Z,66.23
2018-02-21T01:10:39.365Z,64.53
2018-02-21T01:13:06.735Z,66.07
2018-02-21T01:15:34.078Z,68.47
2018-02-21T01:18:01.459Z,64.57
2018-02-21T01:20:28.823Z,63.47
2018-02-21T01:22:56.169Z,60.70
2018-02-21T01:25:23.549Z,69.27
2018-02-21T01:27:50.907Z,69.03
2018-02-21T01:30:18.283Z,69.63
2018-02-21T01:32:45.625Z,62.77
2018-02-21T01:35:13.001Z,72.63
2018-02-21T01:37:40.346Z,67.70
2018-02-21T01:40:07.727Z,64.70
2018-02-21T01:42:35.077Z,63.57
2018-02-21T01:45:02.452Z,64.10
2018-02-21T01:47:29.792Z,69.10
2018-02-21T01:49:57.176Z,64.80
2018-02-21T01:52:24.525Z,69.27
2018-02-21T01:54:51.880Z,67.27
2018-02-21T01:57:19.260Z,71.53
2018-02-21T01:59:46.607Z,69.37
2018-02-21T02:02:13.977Z,71.40
2018-02-21T02:04:41.323Z,66.70
2018-02-21T02:07:08.699Z,72.30
2018-02-21T02:09:36.062Z,69.73
2018-02-21T02:12:03.434Z,72.07
2018-02-21T02:14:30.848Z,75.20
2018-02-21T02:16:58.227Z,68.70
2018-02-21T02:19:25.576Z,72.20
2018-02-21T02:21:52.950Z,78.63
2018-02-21T02:24:20.291Z,67.40
2018-02-21T02:26:47.665Z,70.57
2018-02-21T02:29:15.010Z,73.40
2018-02-21T02:31:42.403Z,77.13
2018-02-21T02:34:09.752Z,71.97
2018-02-21T02:36:37.150Z,78.10
2018-02-21T02:39:10.161Z,71.90
2018-02-21T02:41:37.530Z,75.80
2018-02-21T02:44:04.868Z,71.90
2018-02-21T02:46:32.254Z,73.93
2018-02-21T02:48:59.630Z,70.20
2018-02-21T02:51:26.986Z,73.80
2018-02-21T02:53:54.359Z,78.03
2018-02-21T02:56:21.713Z,73.77
2018-02-21T02:58:49.075Z,80.70
2018-02-21T03:01:16.526Z,67.53
2018-02-21T03:03:43.905Z,78.80
2018-02-21T03:06:11.274Z,68.33
2018-02-21T03:08:38.653Z,71.10
2018-02-21T03:11:06.011Z,73.60
2018-02-21T03:13:33.406Z,71.93
2018-02-21T03:16:00.755Z,69.93
2018-02-21T03:18:28.126Z,78.73
2018-02-21T03:20:55.476Z,78.07
2018-02-21T03:23:22.842Z,72.67
2018-02-21T03:25:50.223Z,73.70
2018-02-21T03:28:17.559Z,73.90
2018-02-21T03:30:44.929Z,73.87
2018-02-21T03:33:12.273Z,74.70
2018-02-21T03:35:39.672Z,74.70
2018-02-21T03:38:07.017Z,77.43
2018-02-21T03:40:34.416Z,81.07
2018-02-21T03:43:01.868Z,79.43
2018-02-21T03:45:29.243Z,77.73
2018-02-21T03:47:56.578Z,80.10
2018-02-21T03:50:23.949Z,84.07
2018-02-21T03:52:51.290Z,80.40
2018-02-21T03:55:18.661Z,82.37
2018-02-21T03:57:46.006Z,81.17
2018-02-21T04:00:13.345Z,83.90
2018-02-21T04:02:40.727Z,78.07
2018-02-21T04:05:08.095Z,83.60
2018-02-21T04:07:35.519Z,81.47
2018-02-21T04:10:02.870Z,89.07
2018-02-21T04:12:30.239Z,88.03
2018-02-21T04:14:57.578Z,90.67
2018-02-21T04:17:24.940Z,92.53
2018-02-21T04:19:52.283Z,86.57
2018-02-21T04:22:19.886Z,89.00
2018-02-21T04:24:47.221Z,89.20
2018-02-21T04:27:14.562Z,96.40
2018-02-21T04:29:42.018Z,85.90
2018-02-21T04:32:09.473Z,92.50
2018-02-21T04:34:36.835Z,87.10
2018-02-21T04:37:04.184Z,90.43
2018-02-21T04:39:31.581Z,92.50
2018-02-21T04:41:58.928Z,95.17
2018-02-21T04:44:26.323Z,93.97
2018-02-21T04:46:53.664Z,98.03
2018-02-21T04:49:21.047Z,87.17
2018-02-21T04:51:48.406Z,97.07
2018-02-21T04:54:31.808Z,98.17
2018-02-21T04:57:15.971Z,92.27
2018-02-21T04:59:47.832Z,97.27
2018-02-21T05:02:15.176Z,99.10
2018-02-21T05:04:42.518Z,95.93
2018-02-21T05:07:10.765Z,93.10
2018-02-21T05:09:38.099Z,98.03
2018-02-21T05:12:05.551Z,100.13
2018-02-21T05:14:32.913Z,99.50
2018-02-21T05:17:00.280Z,90.67
2018-02-21T05:19:27.632Z,100.53
2018-02-21T05:21:55.076Z,94.93
2018-02-21T05:24:22.418Z,98.50
2018-02-21T05:26:49.766Z,107.30
2018-02-21T05:29:17.138Z,109.57
2018-02-21T05:31:44.485Z,105.47
2018-02-21T05:34:11.856Z,101.77
2018-02-21T05:36:39.203Z,103.20
2018-02-21T05:39:06.578Z,102.20
2018-02-21T05:41:33.925Z,96.90
2018-02-21T05:44:01.328Z,105.47
2018-02-21T05:46:28.723Z,110.03
2018-02-21T05:48:56.116Z,103.77
2018-02-21T05:51:23.465Z,98.50
2018-02-21T05:53:50.807Z,106.50
2018-02-21T05:56:18.176Z,93.30
2018-02-21T05:58:45.519Z,104.23
2018-02-21T06:01:12.890Z,101.67
2018-02-21T06:03:40.234Z,109.50
2018-02-21T06:06:07.603Z,106.67
2018-02-21T06:08:34.955Z,99.10
2018-02-21T06:11:02.330Z,105.90
2018-02-21T06:13:29.678Z,107.05
2018-02-21T06:15:57.054Z,104.27
2018-02-21T06:18:24.412Z,105.10
2018-02-21T06:20:51.798Z,113.07
2018-02-21T06:23:19.154Z,103.37
2018-02-21T06:25:46.546Z,112.63
2018-02-21T06:28:13.900Z,101.47
2018-02-21T06:30:41.254Z,97.07
2018-02-21T06:33:08.636Z,93.53
2018-02-21T06:35:36.023Z,103.30
2018-02-21T06:38:03.390Z,97.97
2018-02-21T06:40:30.735Z,104.43
2018-02-21T06:42:58.195Z,105.73
2018-02-21T06:45:25.648Z,106.37
2018-02-21T06:47:53.020Z,104.97
2018-02-21T06:50:20.367Z,111.17
2018-02-21T06:52:47.739Z,109.87
2018-02-21T06:55:15.084Z,106.37
2018-02-21T06:57:42.525Z,100.70
2018-02-21T07:00:09.872Z,103.40
2018-02-21T07:02:37.292Z,104.90
2018-02-21T07:05:04.644Z,111.37
2018-02-21T07:07:32.016Z,116.93
2018-02-21T07:09:59.372Z,137.17
2018-02-21T07:12:26.751Z,114.97
2018-02-21T07:14:54.103Z,112.70
2018-02-21T07:17:21.468Z,107.60
2018-02-21T07:19:49.089Z,96.67
2018-02-21T07:22:16.435Z,125.10
2018-02-21T07:24:43.802Z,100.50
2018-02-21T07:27:11.157Z,109.30
2018-02-21T07:29:38.529Z,99.97
2018-02-21T07:32:05.879Z,104.00
2018-02-21T07:34:33.256Z,101.70
2018-02-21T07:37:00.603Z,114.97
2018-02-21T07:39:27.987Z,116.60
2018-02-21T07:41:55.423Z,99.40
2018-02-21T07:44:22.764Z,104.17
2018-02-21T07:46:50.136Z,102.03
2018-02-21T07:49:17.477Z,96.80
2018-02-21T07:51:44.843Z,103.13
2018-02-21T07:54:12.182Z,96.70
2018-02-21T07:56:39.548Z,98.33
2018-02-21T07:59:06.881Z,102.00
2018-02-21T08:01:34.250Z,102.80
2018-02-21T08:04:01.598Z,99.77
2018-02-21T08:06:28.968Z,96.50
2018-02-21T08:08:56.312Z,92.23
2018-02-21T08:11:23.685Z,98.23
2018-02-21T08:13:51.035Z,104.97
2018-02-21T08:16:18.379Z,98.50
2018-02-21T08:18:45.752Z,101.60
2018-02-21T08:21:13.099Z,100.63
2018-02-21T08:23:40.556Z,106.77
2018-02-21T08:26:07.913Z,94.03
2018-02-21T08:28:35.283Z,110.40
2018-02-21T08:31:02.624Z,100.07
2018-02-21T08:33:30.003Z,104.83
2018-02-21T08:35:57.341Z,98.53
2018-02-21T08:38:24.717Z,99.47
2018-02-21T08:40:52.074Z,93.67
2018-02-21T08:43:19.444Z,97.83
2018-02-21T08:45:46.782Z,96.10
2018-02-21T08:48:14.167Z,97.53
2018-02-21T08:50:41.533Z,104.20
2018-02-21T08:53:08.933Z,91.13
2018-02-21T08:55:36.278Z,108.00
2018-02-21T08:58:03.630Z,93.37
2018-02-21T09:00:31.000Z,109.27
2018-02-21T09:02:58.339Z,102.93
2018-02-21T09:05:25.706Z,96.17
2018-02-21T09:07:53.055Z,93.33
2018-02-21T09:10:20.428Z,99.67
2018-02-21T09:12:47.763Z,96.40
2018-02-21T09:15:15.212Z,92.37
2018-02-21T09:17:42.552Z,87.80
2018-02-21T09:20:09.914Z,91.37
2018-02-21T09:22:37.251Z,99.57
2018-02-21T09:25:04.643Z,96.77
2018-02-21T09:27:31.992Z,110.93
2018-02-21T09:29:59.340Z,100.77
2018-02-21T09:32:26.710Z,90.07
2018-02-21T09:34:54.053Z,92.17
2018-02-21T09:37:21.421Z,89.77
2018-02-21T09:39:48.762Z,95.70
2018-02-21T09:42:16.131Z,98.60
2018-02-21T09:44:43.478Z,103.97
2018-02-21T09:47:10.846Z,97.97
2018-02-21T09:49:38.284Z,102.47
2018-02-21T09:52:05.683Z,105.73
2018-02-21T09:54:33.064Z,101.63
2018-02-21T09:57:00.406Z,95.90
2018-02-21T09:59:27.774Z,102.83
2018-02-21T10:01:55.123Z,101.60
2018-02-21T10:04:22.495Z,92.70
2018-02-21T10:06:49.842Z,100.23
2018-02-21T10:09:17.217Z,96.47
2018-02-21T10:11:44.554Z,97.87
2018-02-21T10:14:11.917Z,91.30
2018-02-21T10:16:39.254Z,96.20
2018-02-21T10:19:06.630Z,98.93
2018-02-21T10:21:33.975Z,95.43
2018-02-21T10:24:01.355Z,97.33
2018-02-21T10:26:28.806Z,97.40
2018-02-21T10:28:56.142Z,90.50
2018-02-21T10:31:23.513Z,93.83
2018-02-21T10:33:50.856Z,93.90
2018-02-21T10:36:18.228Z,92.07
2018-02-21T10:38:45.568Z,87.23
2018-02-21T10:41:12.930Z,88.80
2018-02-21T10:43:40.271Z,87.40
2018-02-21T10:46:07.644Z,94.33
2018-02-21T10:48:34.992Z,87.37
2018-02-21T10:51:02.369Z,83.37
2018-02-21T10:53:29.812Z,90.90
2018-02-21T10:55:57.203Z,88.03
2018-02-21T10:58:24.547Z,79.27
2018-02-21T11:00:57.470Z,88.17
2018-02-21T11:03:24.811Z,91.57
2018-02-21T11:05:52.157Z,82.83
2018-02-21T11:08:19.524Z,91.70
2018-02-21T11:10:46.867Z,81.03
2018-02-21T11:13:14.239Z,103.50
2018-02-21T11:15:41.593Z,100.63
2018-02-21T11:18:08.961Z,94.97
2018-02-21T11:20:36.312Z,86.90
2018-02-21T11:23:03.683Z,87.40
2018-02-21T11:25:31.025Z,89.27
2018-02-21T11:27:58.400Z,81.17
2018-02-21T11:30:25.739Z,87.80
2018-02-21T11:32:53.127Z,90.10
2018-02-21T11:35:20.496Z,93.63
2018-02-21T11:37:47.844Z,84.97
2018-02-21T11:40:15.223Z,79.87
2018-02-21T11:42:42.567Z,87.13
2018-02-21T11:45:09.906Z,77.93
2018-02-21T11:47:37.277Z,79.30
2018-02-21T11:50:04.619Z,85.67
2018-02-21T11:52:31.988Z,79.00
2018-02-21T11:54:59.327Z,86.47
2018-02-21T11:57:26.773Z,85.80
2018-02-21T11:59:54.111Z,90.43
2018-02-21T12:02:21.483Z,83.73
2018-02-21T12:04:48.887Z,85.30
2018-02-21T12:07:16.222Z,96.10
2018-02-21T12:09:43.574Z,84.80
2018-02-21T12:12:11.003Z,78.07
2018-02-21T12:14:38.460Z,83.17
2018-02-21T12:17:05.806Z,80.30
2018-02-21T12:19:33.178Z,77.50
2018-02-21T12:22:00.522Z,82.47
2018-02-21T12:24:27.888Z,81.93
2018-02-21T12:26:55.244Z,85.10
2018-02-21T12:29:22.644Z,75.60
2018-02-21T12:31:50.667Z,79.43
2018-02-21T12:34:18.118Z,87.47
2018-02-21T12:36:45.453Z,81.97
2018-02-21T12:39:18.672Z,84.23
2018-02-21T12:41:46.032Z,75.77
2018-02-21T12:44:13.577Z,69.07
2018-02-21T12:46:41.033Z,74.07
2018-02-21T12:49:08.441Z,73.10
2018-02-21T12:51:35.784Z,83.03
2018-02-21T12:54:03.205Z,85.37
2018-02-21T12:56:30.575Z,78.13
2018-02-21T12:58:58.012Z,69.10
2018-02-21T13:01:25.373Z,75.07
2018-02-21T13:03:52.709Z,74.60
2018-02-21T13:06:20.084Z,70.67
2018-02-21T13:08:47.422Z,75.50
2018-02-21T13:11:14.784Z,72.83
2018-02-21T13:13:42.166Z,71.73
2018-02-21T13:16:09.498Z,71.20
2018-02-21T13:18:36.871Z,73.27
2018-02-21T13:21:04.212Z,73.53
2018-02-21T13:23:31.609Z,72.10
2018-02-21T13:25:58.945Z,67.37
2018-02-21T13:28:26.312Z,60.93
2018-02-21T13:30:53.650Z,67.73
2018-02-21T13:33:20.999Z,67.10
2018-02-21T13:35:48.361Z,60.47
2018-02-21T13:38:15.791Z,62.03
2018-02-21T13:40:43.248Z,73.37
2018-02-21T13:43:10.597Z,64.37
2018-02-21T13:45:37.962Z,76.30
2018-02-21T13:48:05.304Z,68.70
2018-02-21T13:50:32.652Z,64.47
2018-02-21T13:53:00.027Z,74.73
2018-02-21T13:55:27.526Z,68.50
2018-02-21T13:57:54.880Z,63.07
2018-02-21T14:00:22.228Z,56.27
2018-02-21T14:02:49.591Z,56.73
2018-02-21T14:05:16.937Z,54.53
2018-02-21T14:07:44.323Z,63.50
2018-02-21T14:10:11.667Z,58.07
2018-02-21T14:12:39.012Z,69.33
2018-02-21T14:15:06.372Z,59.30
2018-02-21T14:17:33.748Z,69.97
2018-02-21T14:20:01.099Z,62.50
2018-02-21T14:22:28.454Z,67.53
2018-02-21T14:24:55.845Z,63.97
2018-02-21T14:27:23.195Z,68.17
2018-02-21T14:29:50.563Z,56.17
2018-02-21T14:32:17.922Z,61.80
2018-02-21T14:34:45.294Z,62.63
2018-02-21T14:37:12.722Z,60.33
2018-02-21T14:39:40.061Z,64.17
2018-02-21T14:42:07.529Z,63.83
2018-02-21T14:44:34.883Z,62.10
2018-02-21T14:47:02.261Z,59.13
2018-02-21T14:49:29.696Z,59.53
2018-02-21T14:51:57.154Z,54.67
2018-02-21T14:54:24.496Z,56.17
2018-02-21T14:56:51.870Z,55.57
2018-02-21T14:59:19.207Z,51.63
2018-02-21T15:01:46.674Z,60.23
2018-02-21T15:04:14.011Z,59.20
2018-02-21T15:06:41.351Z,53.27
2018-02-21T15:09:08.720Z,54.77
2018-02-21T15:11:36.094Z,50.40
2018-02-21T15:14:03.555Z,59.83
2018-02-21T15:16:30.891Z,54.10
2018-02-21T15:18:58.258Z,47.57
2018-02-21T15:21:25.608Z,50.97
2018-02-21T15:23:52.975Z,54.10
2018-02-21T15:26:20.427Z,46.07
2018-02-21T15:28:47.812Z,58.33
2018-02-21T15:31:15.170Z,49.63
2018-02-21T15:33:42.525Z,50.13
2018-02-21T15:36:09.898Z,50.93
2018-02-21T15:38:37.278Z,43.50
2018-02-21T15:41:04.645Z,46.00
2018-02-21T15:43:31.995Z,49.90
2018-02-21T15:45:59.358Z,67.20
2018-02-21T15:48:26.721Z,72.13
2018-02-21T15:50:54.063Z,57.87
2018-02-21T15:53:21.436Z,54.93
2018-02-21T15:55:48.785Z,62.90
2018-02-21T15:58:16.242Z,52.30
2018-02-21T16:00:43.586Z,49.63
2018-02-21T16:03:10.958Z,51.37
2018-02-21T16:05:38.308Z,55.23
2018-02-21T16:08:05.682Z,56.00
2018-02-21T16:10:33.024Z,50.37
2018-02-21T16:13:00.402Z,54.43
2018-02-21T16:15:27.738Z,51.40
2018-02-21T16:17:55.112Z,51.20
2018-02-21T16:20:22.488Z,49.57
2018-02-21T16:22:49.836Z,54.30
2018-02-21T16:25:17.248Z,53.73
2018-02-21T16:27:44.592Z,46.90
2018-02-21T16:30:11.959Z,43.63
2018-02-21T16:32:39.313Z,46.83
2018-02-21T16:35:06.769Z,39.63
2018-02-21T16:37:34.106Z,45.83
2018-02-21T16:40:01.470Z,45.77
2018-02-21T16:42:28.814Z,47.70
2018-02-21T16:44:56.189Z,50.30
2018-02-21T16:47:23.531Z,44.17
2018-02-21T16:49:50.899Z,44.17
2018-02-21T16:52:18.270Z,46.70
2018-02-21T16:54:45.710Z,48.40
2018-02-21T16:57:13.168Z,43.93
2018-02-21T16:59:40.514Z,42.07
2018-02-21T17:02:07.881Z,43.83
2018-02-21T17:04:35.235Z,47.60
2018-02-21T17:07:02.623Z,40.30
2018-02-21T17:09:29.964Z,49.30
2018-02-21T17:11:57.308Z,46.33
2018-02-21T17:14:24.674Z,59.03
2018-02-21T17:16:52.108Z,39.53
2018-02-21T17:19:19.461Z,45.00
2018-02-21T17:21:46.921Z,41.47
2018-02-21T17:24:14.380Z,46.00
2018-02-21T17:26:41.730Z,47.23
2018-02-21T17:29:09.096Z,42.40
2018-02-21T17:31:36.547Z,44.23
2018-02-21T17:34:03.904Z,41.87
2018-02-21T17:36:31.259Z,43.27
2018-02-21T17:38:58.626Z,41.70
2018-02-21T17:41:31.811Z,39.13
2018-02-21T17:43:59.184Z,45.27
2018-02-21T17:46:26.524Z,47.10
2018-02-21T17:48:53.861Z,47.67
2018-02-21T17:51:21.234Z,41.17
2018-02-21T17:53:48.578Z,44.90
2018-02-21T17:56:16.029Z,41.77
2018-02-21T17:58:43.371Z,46.60
2018-02-21T18:01:10.745Z,51.10
2018-02-21T18:03:38.083Z,44.00
2018-02-21T18:06:05.552Z,47.20
2018-02-21T18:08:32.897Z,45.87
2018-02-21T18:11:00.234Z,44.77
2018-02-21T18:13:27.615Z,49.40
2018-02-21T18:15:54.969Z,47.97
2018-02-21T18:18:22.358Z,45.93
2018-02-21T18:20:49.712Z,45.63
2018-02-21T18:23:17.077Z,51.53
2018-02-21T18:25:44.438Z,51.43
2018-02-21T18:28:11.806Z,49.00
2018-02-21T18:30:39.204Z,47.50
2018-02-21T18:33:06.552Z,50.10
2018-02-21T18:35:34.013Z,49.50
2018-02-21T18:38:01.353Z,49.53
2018-02-21T18:40:28.710Z,49.40
2018-02-21T18:42:56.081Z,47.10
2018-02-21T18:45:23.435Z,51.00
2018-02-21T18:47:50.787Z,47.00
2018-02-21T18:50:18.172Z,45.67
2018-02-21T18:52:45.525Z,52.33
2018-02-21T18:55:12.870Z,73.03
2018-02-21T18:57:40.239Z,62.17
2018-02-21T19:00:07.580Z,48.23
2018-02-21T19:02:34.952Z,44.60
2018-02-21T19:05:02.291Z,44.13
2018-02-21T19:07:29.649Z,46.53
2018-02-21T19:09:56.986Z,48.33
2018-02-21T19:12:24.382Z,46.93
2018-02-21T19:14:51.797Z,47.33
2018-02-21T19:17:19.140Z,59.10
2018-02-21T19:19:46.511Z,51.07
2018-02-21T19:22:13.877Z,43.63
2018-02-21T19:24:41.313Z,42.33
2018-02-21T19:27:08.649Z,46.30
2018-02-21T19:29:36.125Z,44.17
2018-02-21T19:32:03.484Z,49.97
2018-02-21T19:34:30.938Z,55.20
2018-02-21T19:36:58.403Z,43.87
2018-02-21T19:39:25.738Z,52.67
2018-02-21T19:41:53.208Z,47.10
2018-02-21T19:44:20.554Z,46.90
2018-02-21T19:46:47.932Z,40.40
2018-02-21T19:49:15.263Z,40.30
2018-02-21T19:51:42.633Z,43.80
2018-02-21T19:54:10.019Z,39.90
2018-02-21T19:56:37.369Z,41.27
2018-02-21T19:59:04.742Z,32.50
2018-02-21T20:01:32.098Z,37.03
2018-02-21T20:03:59.502Z,37.37
2018-02-21T20:06:26.879Z,43.07
2018-02-21T20:08:54.243Z,47.40
2018-02-21T20:11:21.670Z,38.27
2018-02-21T20:13:49.018Z,40.40
2018-02-21T20:16:16.389Z,38.47
2018-02-21T20:18:43.745Z,38.47
2018-02-21T20:21:11.199Z,30.93
2018-02-21T20:23:38.541Z,41.73
2018-02-21T20:26:05.915Z,38.17
2018-02-21T20:28:33.280Z,40.70
2018-02-21T20:31:00.647Z,33.57
2018-02-21T20:33:28.019Z,43.77
2018-02-21T20:35:55.407Z,37.53
2018-02-21T20:38:22.768Z,42.13
2018-02-21T20:40:50.240Z,40.37
2018-02-21T20:43:17.621Z,36.40
2018-02-21T20:45:44.988Z,45.70
2018-02-21T20:48:12.362Z,43.67
2018-02-21T20:50:39.706Z,39.20
2018-02-21T20:53:07.087Z,37.77
2018-02-21T20:55:34.441Z,38.30
2018-02-21T20:58:01.851Z,40.80
2018-02-21T21:00:29.203Z,52.13
2018-02-21T21:02:56.646Z,39.00
2018-02-21T21:05:24.045Z,43.43
2018-02-21T21:07:51.411Z,40.67
2018-02-21T21:10:18.785Z,46.03
2018-02-21T21:12:46.141Z,41.00
2018-02-21T21:15:13.534Z,42.27
2018-02-21T21:17:40.873Z,44.20
2018-02-21T21:20:08.297Z,40.23
2018-02-21T21:22:35.634Z,46.80
2018-02-21T21:25:02.972Z,40.87
2018-02-21T21:27:30.335Z,43.27
2018-02-21T21:29:57.671Z,48.80
2018-02-21T21:32:25.031Z,44.27
2018-02-21T21:34:52.470Z,43.10
2018-02-21T21:37:19.834Z,40.23
2018-02-21T21:39:47.263Z,37.80
2018-02-21T21:42:14.656Z,39.73
2018-02-21T21:44:41.999Z,42.80
2018-02-21T21:47:09.344Z,53.63
2018-02-21T21:49:36.719Z,47.70
2018-02-21T21:52:04.063Z,48.10
2018-02-21T21:54:31.427Z,42.37
2018-02-21T21:56:58.771Z,49.53
2018-02-21T21:59:26.203Z,43.07
2018-02-21T22:01:53.543Z,45.60
2018-02-21T22:04:20.915Z,46.50
2018-02-21T22:06:48.256Z,46.77
2018-02-21T22:09:15.724Z,45.13
2018-02-21T22:11:43.091Z,48.30
2018-02-21T22:14:10.432Z,49.30
2018-02-21T22:16:37.844Z,46.20
2018-02-21T22:19:05.184Z,42.70
2018-02-21T22:21:32.549Z,45.33
2018-02-21T22:23:59.886Z,51.00
2018-02-21T22:26:27.270Z,39.90
2018-02-21T22:28:54.632Z,47.90
2018-02-21T22:31:21.972Z,51.17
2018-02-21T22:33:49.334Z,52.10
2018-02-21T22:36:16.730Z,44.67
2018-02-21T22:38:44.093Z,48.00
2018-02-21T22:41:11.429Z,47.80
2018-02-21T22:43:38.807Z,47.87
2018-02-21T22:46:06.169Z,41.30
2018-02-21T22:48:33.518Z,49.90
2018-02-21T22:51:00.894Z,43.50
2018-02-21T22:53:28.234Z,48.80
2018-02-21T22:55:55.609Z,51.93
2018-02-21T22:58:22.946Z,54.07
2018-02-21T23:00:50.350Z,50.30
2018-02-21T23:03:17.733Z,47.80
2018-02-21T23:05:45.086Z,45.97
2018-02-21T23:08:12.457Z,47.67
2018-02-21T23:10:39.800Z,46.60
2018-02-21T23:13:07.182Z,46.90
2018-02-21T23:15:34.513Z,46.80
2018-02-21T23:18:01.886Z,52.90
2018-02-21T23:20:29.227Z,46.87
2018-02-21T23:22:56.674Z,49.33
2018-02-21T23:25:24.011Z,45.13
2018-02-21T23:27:51.355Z,50.80
2018-02-21T23:30:18.722Z,45.30
2018-02-21T23:32:46.105Z,47.80
2018-02-21T23:35:13.468Z,56.30
2018-02-21T23:37:40.810Z,49.80
2018-02-21T23:40:08.186Z,52.67
2018-02-21T23:42:35.617Z,51.07
2018-02-21T23:45:02.998Z,53.47
2018-02-21T23:47:30.425Z,49.00
2018-02-21T23:49:57.762Z,42.93
2018-02-21T23:52:25.138Z,47.60
2018-02-21T23:54:52.480Z,41.67
2018-02-21T23:57:19.951Z,49.27
2018-02-21T23:59:47.403Z,43.40
